createdAt,value
2023-03-01T00:01:58.432Z,28.70
2023-03-01T00:04:29.018Z,31.13
2023-03-01T00:06:57.100Z,30.53
2023-03-01T00:09:26.662Z,29.47
2023-03-01T00:11:55.887Z,29.73
2023-03-01T00:14:25.288Z,29.47
2023-03-01T00:16:53.639Z,30.60
2023-03-01T00:19:23.692Z,28.23
2023-03-01T00:21:52.211Z,26.57
2023-03-01T00:24:21.440Z,26.20
2023-03-01T00:26:49.995Z,27.27
2023-03-01T00:29:18.717Z,25.37
2023-03-01T00:31:46.996Z,24.53
2023-03-01T00:34:15.652Z,23.40
2023-03-01T00:36:44.707Z,22.47
2023-03-01T00:39:23.902Z,22.13
2023-03-01T00:42:00.130Z,21.33
2023-03-01T00:44:29.583Z,21.80
2023-03-01T00:46:57.692Z,22.53
2023-03-01T00:49:29.058Z,23.00
2023-03-01T00:51:57.248Z,23.00
2023-03-01T00:54:25.659Z,23.43
2023-03-01T00:56:53.644Z,21.40
2023-03-01T00:59:21.770Z,22.87
2023-03-01T01:01:50.797Z,23.67
2023-03-01T01:04:19.053Z,22.97
2023-03-01T01:06:48.299Z,24.03
2023-03-01T01:09:21.723Z,23.33
2023-03-01T01:11:51.852Z,23.07
2023-03-01T01:14:20.845Z,23.20
2023-03-01T01:16:49.261Z,23.43
2023-03-01T01:19:23.269Z,22.00
2023-03-01T01:21:52.808Z,21.83
2023-03-01T01:24:20.780Z,22.63
2023-03-01T01:26:49.211Z,21.73
2023-03-01T01:29:17.804Z,22.33
2023-03-01T01:31:46.779Z,21.00
2023-03-01T01:34:18.205Z,21.87
2023-03-01T01:36:52.601Z,22.10
2023-03-01T01:39:22.190Z,21.73
2023-03-01T01:41:50.468Z,27.13
2023-03-01T01:44:27.656Z,24.47
2023-03-01T01:47:05.104Z,23.30
2023-03-01T01:49:49.082Z,24.77
2023-03-01T01:52:26.802Z,26.03
2023-03-01T01:54:59.756Z,25.10
2023-03-01T01:58:03.744Z,20.77
2023-03-01T02:00:33.379Z,20.63
2023-03-01T02:03:05.563Z,21.37
2023-03-01T02:05:47.229Z,24.17
2023-03-01T02:08:21.255Z,20.93
2023-03-01T02:10:51.568Z,21.60
2023-03-01T02:13:21.441Z,20.33
2023-03-01T02:15:50.836Z,20.67
2023-03-01T02:18:23.470Z,17.03
2023-03-01T02:21:06.860Z,17.47
2023-03-01T02:23:35.711Z,16.17
2023-03-01T02:26:46.656Z,14.67
2023-03-01T02:29:14.941Z,15.30
2023-03-01T02:31:43.641Z,14.60
2023-03-01T02:34:23.375Z,15.53
2023-03-01T02:37:05.946Z,14.43
2023-03-01T02:39:49.645Z,14.37
2023-03-01T02:42:27.279Z,15.10
2023-03-01T02:44:57.861Z,14.17
2023-03-01T02:47:26.185Z,14.37
2023-03-01T02:49:57.730Z,13.60
2023-03-01T02:52:54.323Z,13.20
2023-03-01T02:55:26.232Z,13.23
2023-03-01T02:57:55.364Z,12.80
2023-03-01T03:00:28.708Z,13.17
2023-03-01T03:02:59.574Z,13.10
2023-03-01T03:05:30.539Z,12.77
2023-03-01T03:08:02.699Z,13.97
2023-03-01T03:10:33.530Z,15.90
2023-03-01T03:13:08.492Z,16.27
2023-03-01T03:15:37.457Z,19.13
2023-03-01T03:18:15.281Z,19.80
2023-03-01T03:20:47.304Z,18.80
2023-03-01T03:23:15.634Z,20.70
2023-03-01T03:25:44.345Z,19.87
2023-03-01T03:28:13.029Z,18.97
2023-03-01T03:30:42.894Z,19.03
2023-03-01T03:33:15.354Z,19.10
2023-03-01T03:35:47.595Z,22.27
2023-03-01T03:38:18.387Z,16.53
2023-03-01T03:41:03.670Z,15.97
2023-03-01T03:43:36.084Z,16.33
2023-03-01T03:46:11.769Z,17.37
2023-03-01T03:48:45.617Z,15.87
2023-03-01T03:51:19.651Z,15.20
2023-03-01T03:53:47.803Z,13.43
2023-03-01T03:56:16.382Z,16.03
2023-03-01T03:58:45.156Z,15.33
2023-03-01T04:01:13.304Z,15.27
2023-03-01T04:03:43.137Z,14.27
2023-03-01T04:06:11.342Z,14.83
2023-03-01T04:08:39.541Z,14.60
2023-03-01T04:11:26.782Z,13.97
2023-03-01T04:14:00.430Z,14.53
2023-03-01T04:16:38.226Z,15.57
2023-03-01T04:19:07.981Z,13.13
2023-03-01T04:21:37.490Z,14.77
2023-03-01T04:24:06.380Z,14.43
2023-03-01T04:26:35.670Z,14.13
2023-03-01T04:29:03.953Z,13.50
2023-03-01T04:31:35.965Z,14.33
2023-03-01T04:34:04.657Z,13.80
2023-03-01T04:36:33.118Z,14.33
2023-03-01T04:39:13.649Z,13.97
2023-03-01T04:41:42.173Z,14.67
2023-03-01T04:44:10.506Z,18.57
2023-03-01T04:46:39.326Z,20.13
2023-03-01T04:49:07.845Z,22.07
2023-03-01T04:51:37.425Z,22.27
2023-03-01T04:54:13.066Z,20.43
2023-03-01T04:56:41.731Z,19.33
2023-03-01T04:59:11.332Z,16.87
2023-03-01T05:01:40.142Z,15.97
2023-03-01T05:04:08.835Z,15.67
2023-03-01T05:06:37.415Z,16.87
2023-03-01T05:09:08.574Z,16.10
2023-03-01T05:11:37.292Z,16.57
2023-03-01T05:14:09.436Z,14.33
2023-03-01T05:16:38.413Z,13.87
2023-03-01T05:19:13.109Z,13.67
2023-03-01T05:22:01.306Z,12.13
2023-03-01T05:24:30.980Z,11.07
2023-03-01T05:27:02.286Z,11.33
2023-03-01T05:29:32.752Z,11.90
2023-03-01T05:32:02.393Z,11.60
2023-03-01T05:34:32.962Z,11.33
2023-03-01T05:37:01.561Z,12.50
2023-03-01T05:39:33.656Z,11.30
2023-03-01T05:42:03.981Z,11.37
2023-03-01T05:44:32.191Z,12.30
2023-03-01T05:47:00.396Z,11.77
2023-03-01T05:49:29.031Z,12.03
2023-03-01T05:51:58.843Z,11.93
2023-03-01T05:54:26.958Z,11.80
2023-03-01T05:56:58.370Z,12.27
2023-03-01T05:59:26.779Z,12.00
2023-03-01T06:01:57.123Z,11.03
2023-03-01T06:04:25.198Z,10.70
2023-03-01T06:06:57.673Z,10.60
2023-03-01T06:09:27.399Z,12.07
2023-03-01T06:11:55.649Z,11.23
2023-03-01T06:14:23.678Z,12.03
2023-03-01T06:16:51.963Z,11.17
2023-03-01T06:19:20.620Z,11.13
2023-03-01T06:21:48.693Z,11.37
2023-03-01T06:24:16.778Z,10.97
2023-03-01T06:26:45.234Z,10.70
2023-03-01T06:29:13.310Z,12.20
2023-03-01T06:31:41.722Z,11.93
2023-03-01T06:34:09.708Z,11.30
2023-03-01T06:36:43.445Z,11.67
2023-03-01T06:39:18.143Z,11.30
2023-03-01T06:41:46.333Z,13.07
2023-03-01T06:44:15.122Z,12.10
2023-03-01T06:46:46.111Z,13.20
2023-03-01T06:49:17.742Z,13.83
2023-03-01T06:51:46.346Z,12.33
2023-03-01T06:54:14.857Z,13.50
2023-03-01T06:56:46.134Z,13.67
2023-03-01T06:59:16.949Z,14.03
2023-03-01T07:01:45.541Z,13.97
2023-03-01T07:04:16.001Z,13.37
2023-03-01T07:06:44.331Z,13.30
2023-03-01T07:09:12.529Z,12.50
2023-03-01T07:11:41.110Z,12.30
2023-03-01T07:14:17.030Z,11.93
2023-03-01T07:16:46.796Z,12.13
2023-03-01T07:19:14.698Z,12.93
2023-03-01T07:21:44.254Z,12.53
2023-03-01T07:24:12.724Z,13.70
2023-03-01T07:26:51.287Z,13.77
2023-03-01T07:29:19.635Z,13.23
2023-03-01T07:31:47.732Z,11.43
2023-03-01T07:34:15.754Z,11.80
2023-03-01T07:36:46.748Z,12.77
2023-03-01T07:39:15.106Z,13.00
2023-03-01T07:41:43.246Z,12.30
2023-03-01T07:44:11.218Z,12.57
2023-03-01T07:46:40.746Z,12.07
2023-03-01T07:49:09.287Z,12.97
2023-03-01T07:51:38.327Z,12.90
2023-03-01T07:54:09.923Z,11.53
2023-03-01T07:56:38.673Z,11.83
2023-03-01T07:59:08.952Z,11.77
2023-03-01T08:01:37.211Z,12.10
2023-03-01T08:04:08.374Z,12.23
2023-03-01T08:06:38.840Z,12.20
2023-03-01T08:09:08.107Z,12.87
2023-03-01T08:11:39.031Z,11.37
2023-03-01T08:14:27.558Z,12.03
2023-03-01T08:16:56.637Z,11.60
2023-03-01T08:19:29.802Z,12.20
2023-03-01T08:21:59.491Z,12.07
2023-03-01T08:24:32.230Z,14.07
2023-03-01T08:27:00.816Z,12.63
2023-03-01T08:29:29.377Z,12.67
2023-03-01T08:32:00.622Z,11.97
2023-03-01T08:34:29.628Z,10.93
2023-03-01T08:37:16.461Z,11.30
2023-03-01T08:39:44.741Z,10.30
2023-03-01T08:42:12.977Z,10.63
2023-03-01T08:44:47.058Z,11.93
2023-03-01T08:47:15.823Z,15.87
2023-03-01T08:49:44.148Z,11.77
2023-03-01T08:52:13.419Z,11.37
2023-03-01T08:54:41.528Z,10.47
2023-03-01T08:57:14.108Z,10.83
2023-03-01T08:59:42.801Z,10.33
2023-03-01T09:02:16.787Z,10.30
2023-03-01T09:04:45.683Z,11.73
2023-03-01T09:07:17.844Z,10.07
2023-03-01T09:09:48.108Z,9.63
2023-03-01T09:12:16.635Z,16.47
2023-03-01T09:14:45.240Z,10.00
2023-03-01T09:17:13.755Z,10.33
2023-03-01T09:19:42.138Z,9.53
2023-03-01T09:22:10.247Z,10.80
2023-03-01T09:24:42.258Z,9.37
2023-03-01T09:27:11.376Z,9.17
2023-03-01T09:29:41.106Z,9.67
2023-03-01T09:32:18.963Z,8.63
2023-03-01T09:35:05.465Z,17.00
2023-03-01T09:37:35.061Z,11.33
2023-03-01T09:40:05.408Z,10.50
2023-03-01T09:42:38.387Z,8.73
2023-03-01T09:45:13.716Z,9.07
2023-03-01T09:47:44.323Z,9.43
2023-03-01T09:50:22.475Z,20.97
2023-03-01T09:53:06.039Z,9.33
2023-03-01T09:55:40.281Z,9.33
2023-03-01T09:58:17.492Z,8.67
2023-03-01T10:00:49.231Z,9.17
2023-03-01T10:03:27.866Z,8.23
2023-03-01T10:06:05.067Z,8.67
2023-03-01T10:08:58.528Z,8.10
2023-03-01T10:11:54.265Z,8.77
2023-03-01T10:14:30.555Z,8.33
2023-03-01T10:17:34.443Z,11.48
2023-03-01T10:20:20.388Z,10.00
2023-03-01T10:22:53.725Z,9.10
2023-03-01T10:25:42.561Z,9.23
2023-03-01T10:28:33.152Z,9.97
2023-03-01T10:31:05.937Z,14.67
2023-03-01T10:33:38.663Z,9.80
2023-03-01T10:36:07.500Z,10.33
2023-03-01T10:38:55.943Z,10.10
2023-03-01T10:41:26.783Z,9.60
2023-03-01T10:43:58.102Z,12.27
2023-03-01T10:46:37.773Z,13.13
2023-03-01T10:49:16.621Z,11.97
2023-03-01T10:51:47.674Z,11.97
2023-03-01T10:54:21.839Z,12.70
2023-03-01T10:56:54.340Z,11.83
2023-03-01T10:59:42.681Z,12.37
2023-03-01T11:02:27.980Z,13.87
2023-03-01T11:05:32.944Z,14.20
2023-03-01T11:08:04.491Z,14.90
2023-03-01T11:10:36.533Z,14.20
2023-03-01T11:13:20.336Z,11.43
2023-03-01T11:16:02.500Z,12.97
2023-03-01T11:18:46.299Z,14.60
2023-03-01T11:21:17.308Z,10.77
2023-03-01T11:23:47.252Z,9.77
2023-03-01T11:26:16.880Z,9.30
2023-03-01T11:28:52.481Z,8.63
2023-03-01T11:31:21.283Z,9.83
2023-03-01T11:34:46.147Z,8.00
2023-03-01T11:37:36.791Z,10.23
2023-03-01T11:40:19.442Z,11.03
2023-03-01T11:43:26.766Z,10.13
2023-03-01T11:46:35.176Z,9.83
2023-03-01T11:49:28.522Z,8.67
2023-03-01T11:52:12.009Z,7.57
2023-03-01T11:55:15.711Z,6.90
2023-03-01T11:58:08.819Z,8.80
2023-03-01T12:01:09.450Z,8.50
2023-03-01T12:03:53.152Z,8.07
2023-03-01T12:06:33.282Z,8.33
2023-03-01T12:09:33.526Z,8.10
2023-03-01T12:12:54.009Z,9.30
2023-03-01T12:15:32.315Z,10.10
2023-03-01T12:18:44.754Z,8.83
2023-03-01T12:21:31.595Z,11.07
2023-03-01T12:24:30.478Z,11.60
2023-03-01T12:27:35.419Z,10.87
2023-03-01T12:30:35.291Z,10.13
2023-03-01T12:33:06.707Z,9.50
2023-03-01T12:35:45.086Z,10.00
2023-03-01T12:38:27.264Z,9.60
2023-03-01T12:41:20.653Z,9.70
2023-03-01T12:44:07.400Z,18.30
2023-03-01T12:46:54.017Z,13.20
2023-03-01T12:49:36.218Z,14.37
2023-03-01T12:52:22.098Z,12.77
2023-03-01T12:54:52.900Z,14.10
2023-03-01T12:57:44.547Z,14.50
2023-03-01T13:00:34.605Z,13.80
2023-03-01T13:03:40.565Z,13.80
2023-03-01T13:06:32.296Z,13.40
2023-03-01T13:09:41.183Z,12.00
2023-03-01T13:13:00.034Z,12.73
2023-03-01T13:15:39.271Z,13.03
2023-03-01T13:18:17.542Z,11.87
2023-03-01T13:20:45.814Z,12.63
2023-03-01T13:23:29.043Z,11.23
2023-03-01T13:26:00.711Z,12.43
2023-03-01T13:28:42.572Z,13.30
2023-03-01T13:31:16.759Z,14.03
2023-03-01T13:33:54.977Z,13.00
2023-03-01T13:36:30.655Z,14.07
2023-03-01T13:39:00.437Z,14.53
2023-03-01T13:41:44.880Z,13.13
2023-03-01T13:44:28.551Z,13.70
2023-03-01T13:47:16.664Z,14.00
2023-03-01T13:50:04.198Z,14.50
2023-03-01T13:52:41.918Z,17.17
2023-03-01T13:55:20.703Z,16.47
2023-03-01T13:57:54.984Z,15.80
2023-03-01T14:00:36.842Z,15.73
2023-03-01T14:03:21.710Z,13.40
2023-03-01T14:06:17.758Z,13.20
2023-03-01T14:08:49.896Z,13.07
2023-03-01T14:11:29.164Z,12.60
2023-03-01T14:14:29.119Z,12.60
2023-03-01T14:17:09.248Z,14.60
2023-03-01T14:19:37.625Z,13.53
2023-03-01T14:22:20.832Z,12.77
2023-03-01T14:24:57.907Z,13.70
2023-03-01T14:27:42.824Z,13.10
2023-03-01T14:30:21.887Z,11.33
2023-03-01T14:33:08.079Z,10.83
2023-03-01T14:35:37.870Z,11.00
2023-03-01T14:38:06.461Z,12.80
2023-03-01T14:40:37.885Z,10.80
2023-03-01T14:43:13.885Z,11.27
2023-03-01T14:45:48.836Z,11.33
2023-03-01T14:48:17.776Z,12.17
2023-03-01T14:50:47.248Z,12.13
2023-03-01T14:53:26.275Z,12.40
2023-03-01T14:56:05.974Z,12.17
2023-03-01T14:58:37.878Z,12.03
2023-03-01T15:01:06.482Z,12.40
2023-03-01T15:03:42.441Z,13.20
2023-03-01T15:06:11.677Z,12.93
2023-03-01T15:08:44.382Z,12.43
2023-03-01T15:11:19.001Z,13.50
2023-03-01T15:13:48.615Z,13.40
2023-03-01T15:16:26.829Z,13.67
2023-03-01T15:19:07.541Z,12.97
2023-03-01T15:21:38.666Z,12.97
2023-03-01T15:24:20.913Z,13.97
2023-03-01T15:27:03.640Z,13.83
2023-03-01T15:29:34.827Z,13.73
2023-03-01T15:32:08.252Z,15.93
2023-03-01T15:34:39.195Z,17.63
2023-03-01T15:38:01.921Z,19.50
2023-03-01T15:40:34.349Z,20.43
2023-03-01T15:43:05.536Z,20.50
2023-03-01T15:45:35.516Z,22.07
2023-03-01T15:48:27.787Z,20.90
2023-03-01T15:50:58.339Z,21.87
2023-03-01T15:53:28.973Z,19.53
2023-03-01T15:55:57.250Z,19.67
2023-03-01T15:58:27.562Z,19.93
2023-03-01T16:01:01.242Z,14.90
2023-03-01T16:03:30.374Z,15.97
2023-03-01T16:06:02.522Z,15.30
2023-03-01T16:08:31.065Z,14.80
2023-03-01T16:10:59.550Z,15.87
2023-03-01T16:13:29.603Z,14.00
2023-03-01T16:16:05.564Z,13.40
2023-03-01T16:18:34.481Z,15.43
2023-03-01T16:21:06.864Z,17.90
2023-03-01T16:23:35.842Z,15.23
2023-03-01T16:26:04.653Z,16.83
2023-03-01T16:28:33.204Z,16.07
2023-03-01T16:31:02.985Z,16.40
2023-03-01T16:33:37.566Z,16.43
2023-03-01T16:36:11.754Z,18.20
2023-03-01T16:38:40.038Z,22.57
2023-03-01T16:41:16.217Z,19.30
2023-03-01T16:43:44.890Z,16.50
2023-03-01T16:46:15.521Z,18.13
2023-03-01T16:48:44.096Z,19.20
2023-03-01T16:51:15.300Z,21.27
2023-03-01T16:53:48.482Z,19.03
2023-03-01T16:56:20.433Z,16.53
2023-03-01T16:58:49.513Z,16.73
2023-03-01T17:01:25.898Z,19.60
2023-03-01T17:03:54.859Z,18.70
2023-03-01T17:06:24.924Z,19.23
2023-03-01T17:08:54.002Z,20.23
2023-03-01T17:11:25.184Z,16.90
2023-03-01T17:13:57.141Z,19.93
2023-03-01T17:16:26.088Z,24.23
2023-03-01T17:18:54.476Z,20.37
2023-03-01T17:21:22.487Z,17.33
2023-03-01T17:23:50.726Z,15.77
2023-03-01T17:26:20.313Z,14.10
2023-03-01T17:28:52.599Z,17.40
2023-03-01T17:31:21.609Z,18.03
2023-03-01T17:33:50.493Z,18.57
2023-03-01T17:36:19.297Z,19.83
2023-03-01T17:38:47.644Z,18.23
2023-03-01T17:41:19.165Z,19.70
2023-03-01T17:43:48.212Z,18.13
2023-03-01T17:46:17.379Z,21.40
2023-03-01T17:48:50.029Z,18.47
2023-03-01T17:51:43.816Z,16.80
2023-03-01T17:54:12.381Z,16.00
2023-03-01T17:56:42.707Z,16.03
2023-03-01T17:59:18.108Z,15.60
2023-03-01T18:01:47.074Z,16.43
2023-03-01T18:04:15.603Z,18.80
2023-03-01T18:06:46.747Z,18.83
2023-03-01T18:09:15.328Z,19.53
2023-03-01T18:11:46.666Z,18.13
2023-03-01T18:14:16.476Z,20.13
2023-03-01T18:16:44.403Z,19.20
2023-03-01T18:19:13.520Z,17.57
2023-03-01T18:21:44.343Z,18.17
2023-03-01T18:24:13.012Z,19.07
2023-03-01T18:26:42.562Z,17.90
2023-03-01T18:29:10.975Z,17.43
2023-03-01T18:31:45.916Z,15.47
2023-03-01T18:34:19.272Z,19.90
2023-03-01T18:37:10.225Z,19.03
2023-03-01T18:39:39.081Z,18.63
2023-03-01T18:42:09.000Z,19.90
2023-03-01T18:44:38.949Z,19.17
2023-03-01T18:47:07.046Z,18.87
2023-03-01T18:49:38.139Z,15.83
2023-03-01T18:52:06.336Z,18.40
2023-03-01T18:54:36.592Z,19.67
2023-03-01T18:57:05.653Z,24.80
2023-03-01T18:59:38.775Z,26.63
2023-03-01T19:02:07.250Z,26.33
2023-03-01T19:04:35.296Z,21.30
2023-03-01T19:07:03.912Z,20.20
2023-03-01T19:09:37.180Z,19.70
2023-03-01T19:12:06.726Z,20.30
2023-03-01T19:14:35.481Z,18.00
2023-03-01T19:17:05.241Z,19.90
2023-03-01T19:19:33.749Z,18.83
2023-03-01T19:22:06.208Z,18.83
2023-03-01T19:24:35.806Z,18.80
2023-03-01T19:27:03.775Z,21.27
2023-03-01T19:29:36.880Z,20.67
2023-03-01T19:32:05.364Z,16.43
2023-03-01T19:34:34.059Z,19.00
2023-03-01T19:37:05.234Z,24.17
2023-03-01T19:39:37.483Z,25.00
2023-03-01T19:42:08.281Z,22.70
2023-03-01T19:44:40.520Z,22.83
2023-03-01T19:47:08.801Z,23.67
2023-03-01T19:49:38.497Z,20.17
2023-03-01T19:52:07.231Z,21.13
2023-03-01T19:54:36.520Z,20.70
2023-03-01T19:57:06.031Z,20.70
2023-03-01T19:59:34.791Z,21.10
2023-03-01T20:02:04.085Z,22.37
2023-03-01T20:04:33.733Z,24.73
2023-03-01T20:07:01.998Z,24.57
2023-03-01T20:09:30.822Z,22.77
2023-03-01T20:11:59.442Z,21.40
2023-03-01T20:14:27.864Z,23.97
2023-03-01T20:16:56.377Z,23.93
2023-03-01T20:19:25.198Z,22.20
2023-03-01T20:21:54.579Z,22.37
2023-03-01T20:24:24.987Z,21.70
2023-03-01T20:26:53.954Z,17.80
2023-03-01T20:29:22.328Z,18.20
2023-03-01T20:31:50.783Z,21.50
2023-03-01T20:34:19.163Z,22.00
2023-03-01T20:36:48.147Z,18.47
2023-03-01T20:39:16.691Z,18.50
2023-03-01T20:41:46.844Z,17.60
2023-03-01T20:44:20.873Z,15.27
2023-03-01T20:46:50.015Z,14.23
2023-03-01T20:49:22.136Z,16.73
2023-03-01T20:51:50.344Z,15.43
2023-03-01T20:54:18.704Z,14.73
2023-03-01T20:56:48.141Z,14.47
2023-03-01T20:59:16.783Z,14.87
2023-03-01T21:01:45.335Z,15.70
2023-03-01T21:04:14.642Z,15.20
2023-03-01T21:06:46.123Z,15.87
2023-03-01T21:09:14.997Z,16.00
2023-03-01T21:11:45.681Z,14.70
2023-03-01T21:14:17.221Z,15.63
2023-03-01T21:16:47.277Z,15.53
2023-03-01T21:19:19.294Z,16.50
2023-03-01T21:21:50.401Z,16.60
2023-03-01T21:24:23.686Z,16.00
2023-03-01T21:26:52.962Z,17.43
2023-03-01T21:29:21.390Z,16.23
2023-03-01T21:31:52.459Z,17.77
2023-03-01T21:34:20.536Z,16.77
2023-03-01T21:36:48.400Z,15.63
2023-03-01T21:39:17.694Z,17.43
2023-03-01T21:41:46.091Z,17.77
2023-03-01T21:44:14.557Z,17.67
2023-03-01T21:46:42.911Z,16.63
2023-03-01T21:49:11.452Z,17.33
2023-03-01T21:51:43.026Z,20.27
2023-03-01T21:54:13.688Z,23.87
2023-03-01T21:56:44.015Z,18.90
2023-03-01T21:59:20.278Z,25.17
2023-03-01T22:01:49.435Z,19.43
2023-03-01T22:04:18.492Z,18.13
2023-03-01T22:06:47.532Z,20.43
2023-03-01T22:09:23.618Z,16.40
2023-03-01T22:12:02.875Z,18.80
2023-03-01T22:14:32.851Z,19.03
2023-03-01T22:17:03.428Z,18.27
2023-03-01T22:19:33.617Z,20.57
2023-03-01T22:22:02.252Z,20.03
2023-03-01T22:24:33.400Z,19.80
2023-03-01T22:27:01.928Z,18.70
2023-03-01T22:29:33.300Z,15.07
2023-03-01T22:32:02.059Z,16.67
2023-03-01T22:34:31.245Z,17.17
2023-03-01T22:37:02.963Z,16.63
2023-03-01T22:39:31.258Z,18.67
2023-03-01T22:42:00.972Z,18.03
2023-03-01T22:44:29.919Z,19.53
2023-03-01T22:46:59.078Z,19.10
2023-03-01T22:49:27.590Z,21.03
2023-03-01T22:52:01.969Z,22.50
2023-03-01T22:54:32.709Z,20.93
2023-03-01T22:57:04.398Z,19.13
2023-03-01T22:59:34.067Z,19.73
2023-03-01T23:02:03.760Z,19.13
2023-03-01T23:04:31.922Z,17.67
2023-03-01T23:07:00.017Z,21.53
2023-03-01T23:09:34.631Z,21.43
2023-03-01T23:12:07.044Z,20.30
2023-03-01T23:14:38.480Z,16.83
2023-03-01T23:17:08.861Z,20.43
2023-03-01T23:19:37.221Z,20.03
2023-03-01T23:22:06.040Z,18.87
2023-03-01T23:24:35.237Z,17.67
2023-03-01T23:27:09.942Z,16.60
2023-03-01T23:29:39.201Z,17.97
2023-03-01T23:32:11.629Z,17.63
2023-03-01T23:34:44.361Z,22.53
2023-03-01T23:37:12.700Z,24.80
2023-03-01T23:39:41.128Z,17.57
2023-03-01T23:42:09.380Z,19.40
2023-03-01T23:44:39.203Z,17.80
2023-03-01T23:47:07.438Z,16.73
2023-03-01T23:49:35.353Z,17.67
2023-03-01T23:52:05.534Z,18.40
2023-03-01T23:54:34.915Z,18.73
2023-03-01T23:57:03.343Z,18.10
2023-03-01T23:59:31.348Z,16.27
